• Join FlightAware (Why Join?)
  • Login
  • US Flag 
03:09AM EDT


 

Airport Tracker/Info


-or-


 

Live Flight TrackerFlight Track Log ✈ AWE1940 ✈ 08-May-2013 ✈ KIAH - KCLT

Flight Track Log - Related Links

Times and Time Zones

All times are in EDT time to prevent confusion due to time zone crossing. See the AWE1940 flight status page for this flight to view local times or setup timezone preferences in your user account.

Time Position Orientation Groundspeed Altitude Reporting Facility
EDT Latitude Longitude Course Direction KTS MPH feet Rate Location/Type
06:45PM 29.9572 -95.3392 90° East 165 190 1,100  Level Houston Center
06:45PM 29.9481 -95.3092 109° East 186 214 1,900 1,440 Climbing Houston Center
06:46PM 29.9408 -95.2731 103° East 206 237 2,900 2,220 Climbing Houston Center
06:46PM 29.9331 -95.2361 104° East 239 275 4,200 2,580 Climbing Houston Center
06:47PM 29.9342 -95.1928 88° East 250 288 5,600 2,220 Climbing Houston Center
06:47PM 29.9378 -95.1511 84° East 284 327 6,500 2,820 Climbing Houston Center
06:48PM 29.9834 -94.8148 90° East  Level FlightAware Approximate
06:48PM 29.9447 -95.0825 83° East 287 330 8,600  Level Houston Center
06:48PM 29.9453 -95.0536 89° East 294 338 9,300 1,920 Climbing Houston Center
06:49PM 29.9833 -94.6766 90° East  Level FlightAware Approximate
06:49PM 29.9533 -94.9844 82° East 304 350 10,600  Level Houston Center
06:50PM 29.9833 -94.5383 90° East  Level FlightAware Approximate
06:50PM 29.9639 -94.8681 84° East 361 415 11,800  Level Houston Center
06:51PM 29.9728 -94.7431 85° East 387 445 14,500 2,280 Climbing Houston Center
06:52PM 29.9872 -94.6153 83° East 399 459 16,600 1,860 Climbing Houston Center
06:53PM 30.0025 -94.4700 83° East 418 481 18,400 1,920 Climbing Houston Center
06:54PM 30.0175 -94.3322 83° East 432 497 20,600 1,860 Climbing Houston Center
06:55PM 30.0319 -94.1964 83° East 430 495 22,300 1,620 Climbing Houston Center
06:56PM 30.0503 -94.0236 83° East 452 520 24,000 1,440 Climbing Houston Center
06:57PM 30.0656 -93.8789 83° East 457 526 25,400 1,200 Climbing Houston Center
06:58PM 30.0811 -93.7292 83° East 472 543 26,600 1,140 Climbing Houston Center
06:59PM 30.0964 -93.5781 83° East 482 555 27,800 1,260 Climbing Houston Center
07:00PM 30.1100 -93.4261 84° East 484 557 29,300 1,500 Climbing Houston Center
07:01PM 30.1281 -93.2481 83° East 475 547 31,000 1,260 Climbing Houston Center
07:02PM 30.1489 -93.1000 81° East 475 547 32,000 960 Climbing Houston Center
07:03PM 30.2019 -92.9686 65° Northeast 461 531 33,000 480 Climbing Houston Center
07:04PM 30.2606 -92.8414 62° Northeast 455 524 33,000 -60 Level Houston Center
07:05PM 30.3286 -92.6861 63° Northeast 454 522 32,900  Descending Houston Center
07:06PM 30.3878 -92.5581 62° Northeast 453 521 33,000  Climbing Houston Center
07:08PM 30.4442 -92.4286 63° Northeast 453 521 33,000  Level Houston Center
07:09PM 30.5053 -92.2894 63° Northeast 452 520 33,000  Level Houston Center
07:10PM 30.5622 -92.1600 63° Northeast 454 522 33,000  Level Houston Center
07:11PM 30.6194 -92.0322 62° Northeast 450 518 33,000  Level Houston Center
07:12PM 30.6772 -91.9025 63° Northeast 454 522 33,000  Level Houston Center
07:13PM 30.7456 -91.7469 63° Northeast 454 522 33,000  Level Houston Center
07:14PM 30.8025 -91.6167 63° Northeast 454 522 33,000  Level Houston Center
07:15PM 30.8592 -91.4858 63° Northeast 455 524 33,000  Level Houston Center
07:16PM 30.9144 -91.3553 64° Northeast 453 521 33,000  Level Houston Center
07:17PM 30.9711 -91.2261 63° Northeast 451 519 33,000  Level Houston Center
07:18PM 31.0317 -91.0831 64° Northeast 448 516 33,000  Level Houston Center
07:19PM 31.0872 -90.9536 63° Northeast 447 514 33,000  Level Houston Center
07:20PM 31.1417 -90.8231 64° Northeast 446 513 33,000  Level Houston Center
07:21PM 31.1983 -90.6936 63° Northeast 446 513 33,000  Level Houston Center
07:22PM 31.2636 -90.5378 64° Northeast 445 512 33,000  Level Houston Center
07:23PM 31.3178 -90.4064 64° Northeast 447 514 33,000  Level Houston Center
07:24PM 31.3733 -90.2753 64° Northeast 449 517 33,000  Level Houston Center
07:25PM 31.4281 -90.1450 64° Northeast 446 513 33,000  Level Houston Center
07:26PM 31.4844 -90.0131 63° Northeast 451 519 33,000  Level Houston Center
07:27PM 31.5392 -89.8806 64° Northeast 451 519 33,000  Level Houston Center
07:28PM 31.6033 -89.7233 64° Northeast 446 513 33,000  Level Houston Center
07:29PM 31.6581 -89.5917 64° Northeast 448 516 33,000  Level Houston Center
07:30PM 31.7092 -89.4664 64° Northeast 446 513 33,000  Level Houston Center
07:31PM 31.7639 -89.3347 64° Northeast 446 513 33,000  Level Houston Center
07:32PM 31.8147 -89.2083 65° Northeast 442 509 33,000  Level Memphis Center
07:33PM 31.8719 -89.0683 64° Northeast 442 509 33,000  Level Memphis Center
07:34PM 31.9247 -88.9353 65° Northeast 442 509 33,000  Level Memphis Center
07:35PM 31.9733 -88.8169 64° Northeast 447 514 33,000  Level Memphis Center
07:37PM 32.0653 -88.5947 64° Northeast 446 513 33,000  Level Atlanta Center
07:38PM 32.1183 -88.4600 65° Northeast 446 513 33,000  Level Atlanta Center
07:39PM 32.1708 -88.3278 65° Northeast 446 513 33,000  Level Atlanta Center
07:40PM 32.2236 -88.1953 65° Northeast 441 507 33,000  Level Atlanta Center
07:41PM 32.2758 -88.0628 65° Northeast 441 507 33,000  Level Atlanta Center
07:42PM 32.3281 -87.9297 65° Northeast 436 502 33,000  Level Atlanta Center
07:43PM 32.3803 -87.7992 65° Northeast 436 502 33,000  Level Atlanta Center
07:44PM 32.4322 -87.6686 65° Northeast 436 502 33,000  Level Atlanta Center
07:45PM 32.4753 -87.5447 68° East 442 509 33,000  Level Atlanta Center
07:46PM 32.5269 -87.4139 65° Northeast 442 509 33,000  Level Atlanta Center
07:47PM 32.5806 -87.2828 64° Northeast 442 509 33,000  Level Atlanta Center
07:48PM 32.6281 -87.1392 69° East 431 496 33,000 -420 Level Atlanta Center
07:49PM 32.6836 -87.0078 63° Northeast 431 496 32,200 -900 Descending Atlanta Center
07:50PM 32.7325 -86.8786 66° East 431 496 31,200 -600 Descending Atlanta Center
07:51PM 32.7811 -86.7542 65° Northeast 419 482 31,000 -120 Descending Atlanta Center
07:52PM 32.8278 -86.6244 67° East 419 482 31,000  Level Atlanta Center
07:53PM 32.8786 -86.4925 65° Northeast 419 482 31,000  Level Atlanta Center
07:54PM 32.9292 -86.3603 65° Northeast 425 489 31,000  Level Atlanta Center
07:55PM 32.9797 -86.2253 66° East 435 501 31,000  Level Atlanta Center
07:56PM 33.0278 -86.0878 67° East 435 501 31,000  Level Atlanta Center
07:57PM 33.0781 -85.9553 66° East 440 506 31,000  Level Atlanta Center
07:58PM 33.1303 -85.8175 66° East 440 506 31,000  Level Atlanta Center
07:59PM 33.1781 -85.6819 67° East 440 506 31,000  Level Atlanta Center
08:00PM 33.2297 -85.5464 65° Northeast 435 501 31,000  Level Atlanta Center
08:01PM 33.2772 -85.4128 67° East 435 501 31,000  Level Atlanta Center
08:02PM 33.3267 -85.2794 66° East 435 501 31,000  Level Atlanta Center
08:03PM 33.3739 -85.1433 67° East 435 501 31,000  Level Atlanta Center
08:04PM 33.4231 -85.0069 67° East 435 501 31,000  Level Atlanta Center
08:05PM 33.4742 -84.8706 66° East 435 501 31,000  Level Atlanta Center
08:06PM 33.5208 -84.7339 68° East 435 501 31,000  Level Atlanta Center
08:07PM 33.5697 -84.5972 67° East 435 501 31,000  Level Atlanta Center
08:08PM 33.6161 -84.4628 67° East 435 501 31,000  Level Atlanta Center
08:09PM 33.6603 -84.3208 69° East 441 507 31,000  Level Atlanta Center
08:10PM 33.7003 -84.1761 72° East 455 524 31,000  Level Atlanta Center
08:11PM 33.7400 -84.0339 71° East 455 524 31,000  Level Atlanta Center
08:12PM 33.7794 -83.8989 71° East 436 502 31,000  Level Atlanta Center
08:13PM 33.8189 -83.7564 72° East 436 502 31,000  Level Atlanta Center
08:14PM 33.8583 -83.6136 72° East 443 510 31,000  Level Atlanta Center
08:15PM 33.8933 -83.4908 71° East 443 510 31,000  Level Atlanta Center
08:16PM 33.9322 -83.3503 72° East 443 510 31,000  Level Atlanta Center
08:17PM 33.9689 -83.2097 73° East 443 510 31,000  Level Atlanta Center
08:18PM 34.0075 -83.0664 72° East 443 510 31,000  Level Atlanta Center
08:19PM 34.0481 -82.9231 71° East 443 510 31,000 -120 Level Atlanta Center
08:20PM 34.0883 -82.7797 71° East 443 510 30,800 -660 Descending Atlanta Center
08:21PM 34.1283 -82.6283 72° East 443 510 29,700 -1,020 Descending Atlanta Center
08:22PM 34.1622 -82.4922 73° East 430 495 28,800 -960 Descending Atlanta Center
08:23PM 34.2000 -82.3486 72° East 430 495 27,800 -1,020 Descending Atlanta Center
08:24PM 34.2378 -82.2094 72° East 435 501 26,800 -1,920 Descending Atlanta Center
08:25PM 34.3067 -82.0822 57° Northeast 435 501 24,000 -2,760 Descending Atlanta Center
08:26PM 34.3906 -81.9772 46° Northeast 435 501 21,300 -2,700 Descending Atlanta Center
08:27PM 34.4722 -81.8744 46° Northeast 430 495 18,700 -2,580 Descending Atlanta Center
08:28PM 34.5356 -81.7972 45° Northeast 412 474 16,700 -2,640 Descending Atlanta Center
08:28PM 34.5703 -81.7508 48° Northeast 400 460 15,500 -2,400 Descending Atlanta Center
08:29PM 34.6253 -81.6836 45° Northeast 390 449 13,900 -1,740 Descending Atlanta Center
08:30PM 34.6967 -81.5933 46° Northeast 377 434 12,400 -1,440 Descending Atlanta Center
08:30PM 34.7147 -81.5700 47° Northeast 354 407 12,100 -300 Descending Atlanta Center
08:31PM 34.7617 -81.5103 46° Northeast 351 404 12,100  Level Atlanta Center
08:31PM 34.7800 -81.4844 49° Northeast 348 400 12,100 -120 Level Atlanta Center
08:32PM 34.8306 -81.4172 47° Northeast 351 404 12,000 -120 Descending Atlanta Center
08:32PM 34.8489 -81.3964 43° Northeast 365 420 12,000 -600 Level Atlanta Center
08:33PM 34.8917 -81.3394 48° Northeast 338 389 11,400 -1,140 Descending Atlanta Center
08:33PM 34.9058 -81.3211 47° Northeast 291 335 10,900 -1,500 Descending Atlanta Center
08:34PM 34.9444 -81.2742 45° Northeast 295 339 9,900 -720 Descending Atlanta Center
08:34PM 34.9686 -81.2456 44° Northeast 268 308 10,100 60 Climbing Atlanta Center
08:35PM 34.9992 -81.2039 48° Northeast 272 313 10,000  Descending Atlanta Center
08:35PM 35.0233 -81.1728 47° Northeast 283 326 10,100  Climbing Atlanta Center
08:36PM 35.0558 -81.1286 48° Northeast 283 326 10,000  Descending Atlanta Center
08:36PM 35.0781 -81.1022 44° Northeast 308 354 10,100 -600 Climbing Atlanta Center
08:37PM 35.1189 -81.0628 38° Northeast 289 333 9,400 -900 Descending Atlanta Center
08:37PM 35.1522 -81.0667 355° North 283 326 9,100 -660 Descending Atlanta Center
08:38PM 35.2339 -81.0739 356° North 269 310 8,500 -900 Descending Atlanta Center
08:39PM 35.3092 -81.0814 355° North 272 313 7,300 -1,380 Descending Atlanta Center
08:40PM 35.3781 -81.0867 356° North 265 305 5,900 -1,620 Descending Atlanta Center
08:41PM 35.4308 -81.0261 43° Northeast 286 329 4,100 -1,020 Descending Atlanta Center
08:42PM 35.3778 -80.9847 148° Southeast 234 269 3,800 -840 Descending Atlanta Center
08:43PM 35.3128 -80.9769 174° South 229 264 2,500 -1,320 Descending Atlanta Center